createdAt,value
2023-05-02T00:00:05.565Z,95166.00
2023-05-02T00:01:05.587Z,95164.00
2023-05-02T00:02:05.665Z,95164.00
2023-05-02T00:03:05.760Z,95166.00
2023-05-02T00:04:05.792Z,95164.00
2023-05-02T00:05:05.675Z,95164.00
2023-05-02T00:06:05.741Z,95168.00
2023-05-02T00:07:05.745Z,95164.00
2023-05-02T00:08:05.734Z,95166.00
2023-05-02T00:09:05.781Z,95162.00
2023-05-02T00:10:05.768Z,95160.00
2023-05-02T00:11:05.883Z,95164.00
2023-05-02T00:12:05.866Z,95158.00
2023-05-02T00:13:05.920Z,95160.00
2023-05-02T00:14:05.943Z,95160.00
2023-05-02T00:15:05.908Z,95160.00
2023-05-02T00:16:05.952Z,95160.00
2023-05-02T00:17:06.045Z,95156.00
2023-05-02T00:18:06.038Z,95156.00
2023-05-02T00:19:06.017Z,95160.00
2023-05-02T00:20:06.106Z,95156.00
2023-05-02T00:21:06.045Z,95154.00
2023-05-02T00:22:06.095Z,95158.00
2023-05-02T00:23:06.113Z,95152.00
2023-05-02T00:24:06.166Z,95154.00
2023-05-02T00:25:06.159Z,95154.00
2023-05-02T00:26:06.153Z,95154.00
2023-05-02T00:27:06.236Z,95154.00
2023-05-02T00:28:06.256Z,95154.00
2023-05-02T00:29:06.296Z,95154.00
2023-05-02T00:30:06.301Z,95152.00
2023-05-02T00:31:06.354Z,95152.00
2023-05-02T00:32:06.365Z,95148.00
2023-05-02T00:33:06.366Z,95148.00
2023-05-02T00:34:06.386Z,95150.00
2023-05-02T00:35:06.369Z,95148.00
2023-05-02T00:36:06.426Z,95148.00
2023-05-02T00:37:06.411Z,95148.00
2023-05-02T00:38:06.446Z,95150.00
2023-05-02T00:39:06.505Z,95148.00
2023-05-02T00:40:06.527Z,95148.00
2023-05-02T00:41:06.537Z,95150.00
2023-05-02T00:42:06.572Z,95148.00
2023-05-02T00:43:06.581Z,95150.00
2023-05-02T00:44:06.965Z,95148.00
2023-05-02T00:45:06.797Z,95148.00
2023-05-02T00:46:06.696Z,95150.00
2023-05-02T00:47:06.660Z,95150.00
2023-05-02T00:48:06.825Z,95150.00
2023-05-02T00:49:06.726Z,95152.00
2023-05-02T00:50:06.754Z,95152.00
2023-05-02T00:51:06.789Z,95152.00
2023-05-02T00:52:06.798Z,95150.00
2023-05-02T00:53:06.853Z,95154.00
2023-05-02T00:54:06.838Z,95152.00
2023-05-02T00:55:06.881Z,95152.00
2023-05-02T00:56:06.873Z,95152.00
2023-05-02T00:57:06.939Z,95150.00
2023-05-02T00:58:06.972Z,95152.00
2023-05-02T00:59:06.964Z,95152.00
2023-05-02T01:00:07.062Z,95152.00
2023-05-02T01:01:07.092Z,95152.00
2023-05-02T01:02:07.209Z,95152.00
2023-05-02T01:03:07.148Z,95154.00
2023-05-02T01:04:07.285Z,95154.00
2023-05-02T01:05:07.116Z,95156.00
2023-05-02T01:06:07.229Z,95156.00
2023-05-02T01:07:07.157Z,95160.00
2023-05-02T01:08:07.218Z,95158.00
2023-05-02T01:09:07.255Z,95160.00
2023-05-02T01:10:07.206Z,95162.00
2023-05-02T01:11:07.261Z,95158.00
2023-05-02T01:12:07.292Z,95162.00
2023-05-02T01:13:07.314Z,95162.00
2023-05-02T01:14:07.323Z,95162.00
2023-05-02T01:15:07.363Z,95164.00
2023-05-02T01:16:07.424Z,95160.00
2023-05-02T01:17:07.374Z,95162.00
2023-05-02T01:18:07.447Z,95162.00
2023-05-02T01:19:07.450Z,95162.00
2023-05-02T01:20:07.483Z,95162.00
2023-05-02T01:21:07.486Z,95164.00
2023-05-02T01:22:07.547Z,95164.00
2023-05-02T01:23:07.508Z,95164.00
2023-05-02T01:24:07.867Z,95164.00
2023-05-02T01:25:07.590Z,95164.00
2023-05-02T01:26:07.578Z,95166.00
2023-05-02T01:27:07.653Z,95166.00
2023-05-02T01:28:07.670Z,95168.00
2023-05-02T01:29:07.722Z,95168.00
2023-05-02T01:30:07.751Z,95170.00
2023-05-02T01:31:07.825Z,95168.00
2023-05-02T01:32:07.875Z,95170.00
2023-05-02T01:33:07.885Z,95170.00
2023-05-02T01:34:07.802Z,95170.00
2023-05-02T01:35:07.805Z,95172.00
2023-05-02T01:36:07.848Z,95172.00
2023-05-02T01:37:07.869Z,95174.00
2023-05-02T01:38:07.877Z,95174.00
2023-05-02T01:39:07.932Z,95176.00
2023-05-02T01:40:07.932Z,95176.00
2023-05-02T01:41:07.946Z,95174.00
2023-05-02T01:42:08.008Z,95174.00
2023-05-02T01:43:08.019Z,95178.00
2023-05-02T01:44:08.052Z,95174.00
2023-05-02T01:45:08.047Z,95174.00
2023-05-02T01:46:08.061Z,95174.00
2023-05-02T01:47:08.143Z,95174.00
2023-05-02T01:48:08.192Z,95174.00
2023-05-02T01:49:08.199Z,95176.00
2023-05-02T01:50:08.206Z,95174.00
2023-05-02T01:51:08.228Z,95176.00
2023-05-02T01:52:08.232Z,95176.00
2023-05-02T01:53:08.264Z,95178.00
2023-05-02T01:54:08.309Z,95178.00
2023-05-02T01:55:08.354Z,95178.00
2023-05-02T01:56:08.356Z,95180.00
2023-05-02T01:57:08.717Z,95178.00
2023-05-02T01:58:08.382Z,95182.00
2023-05-02T01:59:08.413Z,95180.00
2023-05-02T02:00:08.436Z,95180.00
2023-05-02T02:01:08.526Z,95182.00
2023-05-02T02:02:08.489Z,95182.00
2023-05-02T02:03:08.563Z,95178.00
2023-05-02T02:04:08.571Z,95184.00
2023-05-02T02:05:08.500Z,95180.00
2023-05-02T02:06:08.616Z,95184.00
2023-05-02T02:07:08.579Z,95182.00
2023-05-02T02:08:08.632Z,95182.00
2023-05-02T02:09:08.650Z,95184.00
2023-05-02T02:10:08.650Z,95182.00
2023-05-02T02:11:08.657Z,95184.00
2023-05-02T02:12:08.713Z,95182.00
2023-05-02T02:13:08.807Z,95182.00
2023-05-02T02:14:08.780Z,95182.00
2023-05-02T02:15:08.746Z,95182.00
2023-05-02T02:16:09.157Z,95180.00
2023-05-02T02:17:08.874Z,95182.00
2023-05-02T02:18:08.910Z,95180.00
2023-05-02T02:19:08.954Z,95178.00
2023-05-02T02:20:08.888Z,95180.00
2023-05-02T02:21:08.899Z,95182.00
2023-05-02T02:22:08.911Z,95184.00
2023-05-02T02:23:09.250Z,95182.00
2023-05-02T02:24:08.996Z,95182.00
2023-05-02T02:25:09.013Z,95182.00
2023-05-02T02:26:09.026Z,95184.00
2023-05-02T02:27:09.101Z,95184.00
2023-05-02T02:28:09.104Z,95184.00
2023-05-02T02:29:09.128Z,95184.00
2023-05-02T02:30:09.153Z,95186.00
2023-05-02T02:31:09.204Z,95186.00
2023-05-02T02:32:09.222Z,95187.00
2023-05-02T02:33:09.281Z,95186.00
2023-05-02T02:34:09.237Z,95186.00
2023-05-02T02:35:09.242Z,95186.00
2023-05-02T02:36:09.365Z,95186.00
2023-05-02T02:37:09.286Z,95186.00
2023-05-02T02:38:09.318Z,95186.00
2023-05-02T02:39:09.373Z,95186.00
2023-05-02T02:40:09.363Z,95187.00
2023-05-02T02:41:09.418Z,95186.00
2023-05-02T02:42:09.427Z,95187.00
2023-05-02T02:43:09.501Z,95189.00
2023-05-02T02:44:09.904Z,95187.00
2023-05-02T02:45:09.467Z,95189.00
2023-05-02T02:46:09.593Z,95191.00
2023-05-02T02:47:09.570Z,95193.00
2023-05-02T02:48:09.633Z,95195.00
2023-05-02T02:49:09.597Z,95193.00
2023-05-02T02:50:09.648Z,95195.00
2023-05-02T02:51:09.670Z,95191.00
2023-05-02T02:52:09.672Z,95195.00
2023-05-02T02:53:09.735Z,95195.00
2023-05-02T02:54:23.001Z,95195.00
2023-05-02T02:55:10.748Z,95195.00
2023-05-02T02:56:09.740Z,95195.00
2023-05-02T02:57:09.743Z,95195.00
2023-05-02T02:58:09.751Z,95193.00
2023-05-02T02:59:09.719Z,95195.00
2023-05-02T03:00:09.724Z,95197.00
2023-05-02T03:01:09.727Z,95199.00
2023-05-02T03:02:09.792Z,95199.00
2023-05-02T03:03:09.774Z,95197.00
2023-05-02T03:04:09.707Z,95199.00
2023-05-02T03:05:09.715Z,95199.00
2023-05-02T03:06:09.649Z,95199.00
2023-05-02T03:07:09.644Z,95199.00
2023-05-02T03:08:09.650Z,95197.00
2023-05-02T03:09:09.629Z,95199.00
2023-05-02T03:10:09.618Z,95197.00
2023-05-02T03:11:09.620Z,95201.00
2023-05-02T03:12:09.644Z,95199.00
2023-05-02T03:13:09.638Z,95199.00
2023-05-02T03:14:09.661Z,95201.00
2023-05-02T03:15:09.710Z,95199.00
2023-05-02T03:16:09.761Z,95201.00
2023-05-02T03:17:09.770Z,95199.00
2023-05-02T03:18:09.818Z,95199.00
2023-05-02T03:19:09.774Z,95199.00
2023-05-02T03:20:09.836Z,95201.00
2023-05-02T03:21:09.849Z,95199.00
2023-05-02T03:22:09.881Z,95199.00
2023-05-02T03:23:09.908Z,95203.00
2023-05-02T03:24:09.993Z,95205.00
2023-05-02T03:25:09.934Z,95203.00
2023-05-02T03:26:09.982Z,95205.00
2023-05-02T03:27:10.022Z,95203.00
2023-05-02T03:28:10.043Z,95203.00
2023-05-02T03:29:10.057Z,95203.00
2023-05-02T03:30:10.077Z,95205.00
2023-05-02T03:31:10.128Z,95205.00
2023-05-02T03:32:10.256Z,95207.00
2023-05-02T03:33:10.310Z,95207.00
2023-05-02T03:34:10.171Z,95207.00
2023-05-02T03:35:10.194Z,95207.00
2023-05-02T03:36:10.220Z,95209.00
2023-05-02T03:37:10.237Z,95211.00
2023-05-02T03:38:10.313Z,95211.00
2023-05-02T03:39:10.290Z,95213.00
2023-05-02T03:40:10.315Z,95213.00
2023-05-02T03:41:10.312Z,95215.00
2023-05-02T03:42:10.399Z,95215.00
2023-05-02T03:43:10.404Z,95217.00
2023-05-02T03:44:10.416Z,95219.00
2023-05-02T03:45:10.578Z,95217.00
2023-05-02T03:46:10.502Z,95219.00
2023-05-02T03:47:10.560Z,95217.00
2023-05-02T03:48:10.595Z,95219.00
2023-05-02T03:49:10.572Z,95221.00
2023-05-02T03:50:10.600Z,95225.00
2023-05-02T03:51:10.612Z,95221.00
2023-05-02T03:52:10.641Z,95221.00
2023-05-02T03:53:10.688Z,95221.00
2023-05-02T03:54:10.758Z,95223.00
2023-05-02T03:55:10.746Z,95225.00
2023-05-02T03:56:11.043Z,95225.00
2023-05-02T03:57:10.765Z,95225.00
2023-05-02T03:58:10.831Z,95223.00
2023-05-02T03:59:10.856Z,95225.00
2023-05-02T04:00:10.873Z,95225.00
2023-05-02T04:01:10.852Z,95229.00
2023-05-02T04:02:10.919Z,95229.00
2023-05-02T04:03:10.977Z,95227.00
2023-05-02T04:04:10.993Z,95229.00
2023-05-02T04:05:10.963Z,95229.00
2023-05-02T04:06:10.991Z,95233.00
2023-05-02T04:07:10.975Z,95233.00
2023-05-02T04:08:10.993Z,95233.00
2023-05-02T04:09:11.044Z,95233.00
2023-05-02T04:10:11.022Z,95237.00
2023-05-02T04:11:11.064Z,95237.00
2023-05-02T04:12:11.036Z,95237.00
2023-05-02T04:13:11.015Z,95241.00
2023-05-02T04:14:11.073Z,95239.00
2023-05-02T04:15:11.090Z,95239.00
2023-05-02T04:16:11.096Z,95241.00
2023-05-02T04:17:11.115Z,95239.00
2023-05-02T04:18:11.141Z,95241.00
2023-05-02T04:19:11.117Z,95242.00
2023-05-02T04:20:11.136Z,95241.00
2023-05-02T04:21:11.124Z,95242.00
2023-05-02T04:22:11.122Z,95244.00
2023-05-02T04:23:11.139Z,95244.00
2023-05-02T04:24:11.201Z,95246.00
2023-05-02T04:25:11.156Z,95244.00
2023-05-02T04:26:11.145Z,95246.00
2023-05-02T04:27:13.724Z,95246.00
2023-05-02T04:28:11.248Z,95248.00
2023-05-02T04:29:11.176Z,95252.00
2023-05-02T04:30:11.117Z,95254.00
2023-05-02T04:31:11.181Z,95256.00
2023-05-02T04:32:11.148Z,95256.00
2023-05-02T04:33:11.120Z,95254.00
2023-05-02T04:34:11.119Z,95256.00
2023-05-02T04:35:11.121Z,95260.00
2023-05-02T04:36:11.062Z,95260.00
2023-05-02T04:37:11.086Z,95262.00
2023-05-02T04:38:11.095Z,95262.00
2023-05-02T04:39:11.097Z,95262.00
2023-05-02T04:40:11.112Z,95264.00
2023-05-02T04:41:11.368Z,95266.00
2023-05-02T04:42:11.064Z,95266.00
2023-05-02T04:43:11.049Z,95268.00
2023-05-02T04:44:11.086Z,95270.00
2023-05-02T04:45:11.031Z,95270.00
2023-05-02T04:46:11.067Z,95272.00
2023-05-02T04:47:11.034Z,95274.00
2023-05-02T04:48:11.069Z,95276.00
2023-05-02T04:49:11.012Z,95276.00
2023-05-02T04:50:10.977Z,95274.00
2023-05-02T04:51:10.990Z,95278.00
2023-05-02T04:52:10.980Z,95276.00
2023-05-02T04:53:10.982Z,95278.00
2023-05-02T04:54:10.987Z,95280.00
2023-05-02T04:55:10.976Z,95276.00
2023-05-02T04:56:10.936Z,95276.00
2023-05-02T04:57:10.966Z,95282.00
2023-05-02T04:58:10.948Z,95282.00
2023-05-02T04:59:10.912Z,95284.00
2023-05-02T05:00:11.296Z,95286.00
2023-05-02T05:02:29.870Z,95284.00
2023-05-02T05:03:30.007Z,95284.00
2023-05-02T05:04:29.788Z,95288.00
2023-05-02T05:05:29.892Z,95289.00
2023-05-02T05:06:29.833Z,95288.00
2023-05-02T05:07:29.756Z,95291.00
2023-05-02T05:08:30.040Z,95289.00
2023-05-02T05:09:29.819Z,95289.00
2023-05-02T05:10:29.713Z,95293.00
2023-05-02T05:11:29.738Z,95293.00
2023-05-02T05:12:29.795Z,95295.00
2023-05-02T05:13:29.714Z,95301.00
2023-05-02T05:14:30.058Z,95301.00
2023-05-02T05:15:29.685Z,95303.00
2023-05-02T05:16:29.696Z,95303.00
2023-05-02T05:17:29.681Z,95305.00
2023-05-02T05:18:29.681Z,95303.00
2023-05-02T05:19:29.686Z,95305.00
2023-05-02T05:20:29.696Z,95305.00
2023-05-02T05:21:29.648Z,95311.00
2023-05-02T05:22:29.650Z,95309.00
2023-05-02T05:23:29.618Z,95311.00
2023-05-02T05:24:29.977Z,95313.00
2023-05-02T05:25:29.617Z,95309.00
2023-05-02T05:26:29.633Z,95311.00
2023-05-02T05:27:29.677Z,95313.00
2023-05-02T05:28:29.650Z,95313.00
2023-05-02T05:29:29.607Z,95311.00
2023-05-02T05:30:29.607Z,95317.00
2023-05-02T05:31:29.970Z,95315.00
2023-05-02T05:32:29.622Z,95319.00
2023-05-02T05:33:29.926Z,95323.00
2023-05-02T05:34:30.279Z,95321.00
2023-05-02T05:35:29.560Z,95323.00
2023-05-02T05:36:29.643Z,95327.00
2023-05-02T05:37:29.955Z,95325.00
2023-05-02T05:38:29.970Z,95325.00
2023-05-02T05:39:30.066Z,95329.00
2023-05-02T05:40:29.529Z,95327.00
2023-05-02T05:41:29.824Z,95327.00
2023-05-02T05:42:29.873Z,95331.00
2023-05-02T05:43:29.523Z,95329.00
2023-05-02T05:44:30.062Z,95331.00
2023-05-02T05:45:29.496Z,95333.00
2023-05-02T05:47:48.670Z,95335.00
2023-05-02T05:48:48.438Z,95340.00
2023-05-02T05:49:48.619Z,95336.00
2023-05-02T05:50:48.448Z,95340.00
2023-05-02T05:51:48.392Z,95340.00
2023-05-02T05:52:48.368Z,95340.00
2023-05-02T05:53:48.396Z,95342.00
2023-05-02T05:54:48.411Z,95342.00
2023-05-02T05:55:48.378Z,95342.00
2023-05-02T05:56:49.444Z,95346.00
2023-05-02T05:57:48.367Z,95346.00
2023-05-02T05:58:48.341Z,95346.00
2023-05-02T05:59:48.328Z,95344.00
2023-05-02T06:00:48.302Z,95346.00
2023-05-02T06:01:48.319Z,95348.00
2023-05-02T06:02:48.463Z,95350.00
2023-05-02T06:03:48.462Z,95348.00
2023-05-02T06:04:48.345Z,95350.00
2023-05-02T06:05:48.266Z,95350.00
2023-05-02T06:06:48.298Z,95350.00
2023-05-02T06:07:48.255Z,95354.00
2023-05-02T06:08:48.278Z,95354.00
2023-05-02T06:09:48.243Z,95354.00
2023-05-02T06:10:48.269Z,95356.00
2023-05-02T06:11:48.222Z,95358.00
2023-05-02T06:12:49.210Z,95358.00
2023-05-02T06:13:48.247Z,95360.00
2023-05-02T06:14:48.613Z,95362.00
2023-05-02T06:15:48.310Z,95368.00
2023-05-02T06:16:48.259Z,95366.00
2023-05-02T06:17:48.257Z,95368.00
2023-05-02T06:18:48.212Z,95374.00
2023-05-02T06:19:48.623Z,95372.00
2023-05-02T06:20:48.332Z,95372.00
2023-05-02T06:21:48.393Z,95374.00
2023-05-02T06:22:48.495Z,95374.00
2023-05-02T06:23:48.504Z,95376.00
2023-05-02T06:24:48.657Z,95378.00
2023-05-02T06:25:48.650Z,95378.00
2023-05-02T06:26:48.695Z,95383.00
2023-05-02T06:27:48.698Z,95380.00
2023-05-02T06:28:48.775Z,95382.00
2023-05-02T06:29:48.761Z,95382.00
2023-05-02T06:30:48.796Z,95380.00
2023-05-02T06:31:48.886Z,95380.00
2023-05-02T06:32:48.995Z,95385.00
2023-05-02T06:33:48.959Z,95385.00
2023-05-02T06:34:48.991Z,95387.00
2023-05-02T06:35:48.947Z,95387.00
2023-05-02T06:36:49.011Z,95387.00
2023-05-02T06:37:49.008Z,95391.00
2023-05-02T06:38:49.107Z,95387.00
2023-05-02T06:39:49.112Z,95389.00
2023-05-02T06:40:49.117Z,95391.00
2023-05-02T06:41:49.190Z,95391.00
2023-05-02T06:42:49.198Z,95391.00
2023-05-02T06:43:49.168Z,95393.00
2023-05-02T06:44:49.623Z,95393.00
2023-05-02T06:45:49.209Z,95397.00
2023-05-02T06:46:49.220Z,95395.00
2023-05-02T06:47:49.260Z,95397.00
2023-05-02T06:48:49.246Z,95393.00
2023-05-02T06:49:49.319Z,95391.00
2023-05-02T06:50:50.054Z,95393.00
2023-05-02T06:51:49.300Z,95395.00
2023-05-02T06:52:49.342Z,95395.00
2023-05-02T06:53:49.312Z,95393.00
2023-05-02T06:54:50.333Z,95397.00
2023-05-02T06:55:49.373Z,95397.00
2023-05-02T06:56:49.326Z,95409.00
2023-05-02T06:57:50.137Z,95407.00
2023-05-02T06:58:49.454Z,95407.00
2023-05-02T06:59:49.704Z,95405.00
2023-05-02T07:00:49.449Z,95409.00
2023-05-02T07:01:49.410Z,95411.00
2023-05-02T07:02:50.172Z,95413.00
2023-05-02T07:03:49.540Z,95411.00
2023-05-02T07:04:49.452Z,95417.00
2023-05-02T07:05:49.428Z,95415.00
2023-05-02T07:06:49.530Z,95417.00
2023-05-02T07:07:49.460Z,95417.00
2023-05-02T07:08:49.468Z,95415.00
2023-05-02T07:09:49.666Z,95417.00
2023-05-02T07:10:49.608Z,95415.00
2023-05-02T07:11:49.477Z,95417.00
2023-05-02T07:12:49.500Z,95417.00
2023-05-02T07:13:49.498Z,95415.00
2023-05-02T07:14:49.484Z,95417.00
2023-05-02T07:15:49.530Z,95419.00
2023-05-02T07:16:49.615Z,95419.00
2023-05-02T07:17:49.699Z,95417.00
2023-05-02T07:18:49.549Z,95417.00
2023-05-02T07:19:49.625Z,95419.00
2023-05-02T07:20:49.755Z,95419.00
2023-05-02T07:21:49.591Z,95417.00
2023-05-02T07:22:49.639Z,95421.00
2023-05-02T07:23:49.608Z,95421.00
2023-05-02T07:24:49.652Z,95421.00
2023-05-02T07:25:49.635Z,95421.00
2023-05-02T07:26:49.645Z,95425.00
2023-05-02T07:27:49.701Z,95421.00
2023-05-02T07:28:49.648Z,95419.00
2023-05-02T07:29:49.614Z,95423.00
2023-05-02T07:30:50.151Z,95427.00
2023-05-02T07:31:49.702Z,95425.00
2023-05-02T07:32:49.748Z,95427.00
2023-05-02T07:33:49.685Z,95425.00
2023-05-02T07:34:49.688Z,95429.00
2023-05-02T07:35:50.175Z,95425.00
2023-05-02T07:36:49.746Z,95429.00
2023-05-02T07:37:49.796Z,95429.00
2023-05-02T07:38:49.782Z,95431.00
2023-05-02T07:39:49.787Z,95431.00
2023-05-02T07:40:50.141Z,95429.00
2023-05-02T07:41:49.808Z,95433.00
2023-05-02T07:42:49.800Z,95433.00
2023-05-02T07:43:49.861Z,95433.00
2023-05-02T07:44:49.823Z,95431.00
2023-05-02T07:45:49.881Z,95431.00
2023-05-02T07:46:49.844Z,95431.00
2023-05-02T07:47:49.919Z,95431.00
2023-05-02T07:48:49.790Z,95431.00
2023-05-02T07:49:49.787Z,95433.00
2023-05-02T07:50:50.169Z,95435.00
2023-05-02T07:51:49.869Z,95433.00
2023-05-02T07:52:49.848Z,95435.00
2023-05-02T07:53:49.895Z,95433.00
2023-05-02T07:54:49.910Z,95435.00
2023-05-02T07:55:50.414Z,95433.00
2023-05-02T07:56:49.972Z,95436.00
2023-05-02T07:57:49.912Z,95436.00
2023-05-02T07:58:49.922Z,95436.00
2023-05-02T07:59:49.935Z,95438.00
2023-05-02T08:00:49.913Z,95438.00
2023-05-02T08:01:49.945Z,95440.00
2023-05-02T08:02:50.001Z,95440.00
2023-05-02T08:03:50.192Z,95440.00
2023-05-02T08:04:50.020Z,95442.00
2023-05-02T08:05:50.006Z,95444.00
2023-05-02T08:06:50.133Z,95446.00
2023-05-02T08:07:50.083Z,95450.00
2023-05-02T08:08:50.171Z,95450.00
2023-05-02T08:09:50.206Z,95450.00
2023-05-02T08:10:50.258Z,95450.00
2023-05-02T08:11:50.260Z,95450.00
2023-05-02T08:12:50.272Z,95448.00
2023-05-02T08:13:50.344Z,95450.00
2023-05-02T08:14:50.388Z,95450.00
2023-05-02T08:15:50.457Z,95452.00
2023-05-02T08:16:50.520Z,95456.00
2023-05-02T08:17:50.496Z,95456.00
2023-05-02T08:18:50.403Z,95456.00
2023-05-02T08:19:50.419Z,95460.00
2023-05-02T08:20:50.537Z,95458.00
2023-05-02T08:21:50.532Z,95460.00
2023-05-02T08:22:50.505Z,95458.00
2023-05-02T08:23:50.562Z,95462.00
2023-05-02T08:24:50.569Z,95462.00
2023-05-02T08:25:50.629Z,95460.00
2023-05-02T08:26:50.677Z,95460.00
2023-05-02T08:27:50.732Z,95460.00
2023-05-02T08:28:50.791Z,95460.00
2023-05-02T08:29:50.812Z,95460.00
2023-05-02T08:30:50.841Z,95460.00
2023-05-02T08:31:50.928Z,95460.00
2023-05-02T08:32:51.072Z,95460.00
2023-05-02T08:33:51.022Z,95462.00
2023-05-02T08:34:51.164Z,95462.00
2023-05-02T08:35:51.203Z,95462.00
2023-05-02T08:36:51.153Z,95460.00
2023-05-02T08:37:51.156Z,95460.00
2023-05-02T08:38:51.158Z,95462.00
2023-05-02T08:39:51.128Z,95460.00
2023-05-02T08:40:52.142Z,95462.00
2023-05-02T08:41:51.173Z,95462.00
2023-05-02T08:42:51.119Z,95460.00
2023-05-02T08:43:51.189Z,95464.00
2023-05-02T08:44:51.160Z,95464.00
2023-05-02T08:45:51.693Z,95464.00
2023-05-02T08:46:51.259Z,95472.00
2023-05-02T08:47:51.255Z,95472.00
2023-05-02T08:48:51.228Z,95474.00
2023-05-02T08:49:51.245Z,95476.00
2023-05-02T08:50:51.712Z,95476.00
2023-05-02T08:51:51.320Z,95478.00
2023-05-02T08:52:51.316Z,95478.00
2023-05-02T08:53:51.318Z,95478.00
2023-05-02T08:54:51.319Z,95478.00
2023-05-02T08:55:51.351Z,95478.00
2023-05-02T08:56:51.702Z,95478.00
2023-05-02T08:57:51.351Z,95476.00
2023-05-02T08:58:51.374Z,95478.00
2023-05-02T08:59:51.394Z,95480.00
2023-05-02T09:00:51.492Z,95478.00
2023-05-02T09:01:51.461Z,95480.00
2023-05-02T09:02:51.548Z,95482.00
2023-05-02T09:03:51.557Z,95482.00
2023-05-02T09:04:51.579Z,95483.00
2023-05-02T09:05:51.643Z,95482.00
2023-05-02T09:06:51.828Z,95483.00
2023-05-02T09:07:51.839Z,95491.00
2023-05-02T09:08:51.872Z,95489.00
2023-05-02T09:09:51.892Z,95489.00
2023-05-02T09:10:51.982Z,95485.00
2023-05-02T09:11:52.029Z,95487.00
2023-05-02T09:12:52.104Z,95483.00
2023-05-02T09:13:52.154Z,95485.00
2023-05-02T09:14:52.226Z,95485.00
2023-05-02T09:15:52.276Z,95485.00
2023-05-02T09:16:52.358Z,95483.00
2023-05-02T09:17:52.417Z,95485.00
2023-05-02T09:18:52.459Z,95485.00
2023-05-02T09:19:52.528Z,95483.00
2023-05-02T09:20:52.571Z,95483.00
2023-05-02T09:21:52.688Z,95489.00
2023-05-02T09:22:52.654Z,95489.00
2023-05-02T09:23:52.655Z,95489.00
2023-05-02T09:24:52.612Z,95491.00
2023-05-02T09:25:52.631Z,95489.00
2023-05-02T09:26:52.709Z,95491.00
2023-05-02T09:27:52.625Z,95491.00
2023-05-02T09:28:52.678Z,95491.00
2023-05-02T09:29:52.673Z,95491.00
2023-05-02T09:30:52.805Z,95493.00
2023-05-02T09:31:56.026Z,95489.00
2023-05-02T09:32:52.779Z,95491.00
2023-05-02T09:33:52.667Z,95491.00
2023-05-02T09:34:52.668Z,95493.00
2023-05-02T09:35:52.808Z,95493.00
2023-05-02T09:36:52.679Z,95489.00
2023-05-02T09:37:52.737Z,95491.00
2023-05-02T09:38:52.641Z,95491.00
2023-05-02T09:39:52.595Z,95485.00
2023-05-02T09:40:52.664Z,95491.00
2023-05-02T09:41:52.675Z,95491.00
2023-05-02T09:42:52.708Z,95491.00
2023-05-02T09:43:52.587Z,95493.00
2023-05-02T09:44:52.580Z,95497.00
2023-05-02T09:45:52.618Z,95493.00
2023-05-02T09:46:52.543Z,95493.00
2023-05-02T09:47:52.607Z,95493.00
2023-05-02T09:48:52.564Z,95491.00
2023-05-02T09:49:52.574Z,95493.00
2023-05-02T09:50:52.573Z,95489.00
2023-05-02T09:51:52.615Z,95487.00
2023-05-02T09:52:52.555Z,95489.00
2023-05-02T09:53:52.510Z,95493.00
2023-05-02T09:54:52.515Z,95487.00
2023-05-02T09:55:52.507Z,95489.00
2023-05-02T09:56:52.469Z,95491.00
2023-05-02T09:57:52.516Z,95489.00
2023-05-02T09:58:52.495Z,95491.00
2023-05-02T09:59:52.533Z,95489.00
2023-05-02T10:00:52.578Z,95493.00
2023-05-02T10:01:52.625Z,95493.00
2023-05-02T10:02:52.754Z,95491.00
2023-05-02T10:03:52.817Z,95493.00
2023-05-02T10:04:52.822Z,95489.00
2023-05-02T10:05:52.838Z,95491.00
2023-05-02T10:06:53.013Z,95493.00
2023-05-02T10:07:52.953Z,95487.00
2023-05-02T10:08:53.070Z,95493.00
2023-05-02T10:09:53.115Z,95489.00
2023-05-02T10:10:53.117Z,95495.00
2023-05-02T10:11:53.251Z,95493.00
2023-05-02T10:12:53.256Z,95493.00
2023-05-02T10:13:53.396Z,95493.00
2023-05-02T10:14:53.412Z,95495.00
2023-05-02T10:15:53.496Z,95495.00
2023-05-02T10:16:53.495Z,95495.00
2023-05-02T10:17:53.626Z,95497.00
2023-05-02T10:18:53.632Z,95493.00
2023-05-02T10:19:53.703Z,95491.00
2023-05-02T10:20:53.764Z,95491.00
2023-05-02T10:21:54.217Z,95493.00
2023-05-02T10:22:53.876Z,95491.00
2023-05-02T10:23:53.989Z,95487.00
2023-05-02T10:24:54.038Z,95491.00
2023-05-02T10:25:54.352Z,95489.00
2023-05-02T10:26:54.203Z,95489.00
2023-05-02T10:27:54.211Z,95485.00
2023-05-02T10:28:54.279Z,95485.00
2023-05-02T10:29:54.317Z,95485.00
2023-05-02T10:30:54.397Z,95482.00
2023-05-02T10:31:54.793Z,95480.00
2023-05-02T10:32:54.551Z,95483.00
2023-05-02T10:33:54.568Z,95480.00
2023-05-02T10:34:54.613Z,95476.00
2023-05-02T10:35:54.695Z,95476.00
2023-05-02T10:36:55.250Z,95478.00
2023-05-02T10:37:54.814Z,95476.00
2023-05-02T10:38:54.864Z,95476.00
2023-05-02T10:39:54.919Z,95478.00
2023-05-02T10:40:54.912Z,95472.00
2023-05-02T10:41:55.228Z,95474.00
2023-05-02T10:42:54.878Z,95474.00
2023-05-02T10:43:54.924Z,95470.00
2023-05-02T10:44:54.899Z,95470.00
2023-05-02T10:45:55.066Z,95470.00
2023-05-02T10:46:55.001Z,95464.00
2023-05-02T10:47:55.140Z,95468.00
2023-05-02T10:48:55.152Z,95468.00
2023-05-02T10:49:55.267Z,95468.00
2023-05-02T10:50:55.137Z,95468.00
2023-05-02T10:51:55.687Z,95466.00
2023-05-02T10:52:55.298Z,95466.00
2023-05-02T10:53:55.334Z,95464.00
2023-05-02T10:54:55.368Z,95466.00
2023-05-02T10:55:55.490Z,95462.00
2023-05-02T10:56:55.573Z,95466.00
2023-05-02T10:57:55.524Z,95462.00
2023-05-02T10:58:55.621Z,95462.00
2023-05-02T10:59:55.685Z,95460.00
2023-05-02T11:00:55.842Z,95460.00
2023-05-02T11:01:56.364Z,95454.00
2023-05-02T11:02:56.023Z,95456.00
2023-05-02T11:03:55.960Z,95454.00
2023-05-02T11:04:56.069Z,95456.00
2023-05-02T11:05:56.083Z,95454.00
2023-05-02T11:06:56.256Z,95454.00
2023-05-02T11:07:56.312Z,95454.00
2023-05-02T11:08:56.279Z,95454.00
2023-05-02T11:09:56.273Z,95456.00
2023-05-02T11:10:56.334Z,95452.00
2023-05-02T11:11:56.704Z,95456.00
2023-05-02T11:12:56.452Z,95456.00
2023-05-02T11:13:56.519Z,95458.00
2023-05-02T11:14:56.567Z,95458.00
2023-05-02T11:15:56.650Z,95456.00
2023-05-02T11:16:56.757Z,95456.00
2023-05-02T11:17:56.720Z,95456.00
2023-05-02T11:18:56.779Z,95458.00
2023-05-02T11:19:56.879Z,95454.00
2023-05-02T11:20:56.915Z,95452.00
2023-05-02T11:21:57.003Z,95456.00
2023-05-02T11:22:57.057Z,95454.00
2023-05-02T11:23:57.135Z,95454.00
2023-05-02T11:24:57.200Z,95454.00
2023-05-02T11:25:57.214Z,95454.00
2023-05-02T11:26:57.281Z,95452.00
2023-05-02T11:27:57.320Z,95450.00
2023-05-02T11:28:57.442Z,95454.00
2023-05-02T11:29:57.494Z,95452.00
2023-05-02T11:30:58.063Z,95452.00
2023-05-02T11:31:57.840Z,95456.00
2023-05-02T11:32:57.618Z,95454.00
2023-05-02T11:33:57.646Z,95454.00
2023-05-02T11:34:58.139Z,95456.00
2023-05-02T11:35:57.708Z,95452.00
2023-05-02T11:36:58.202Z,95452.00
2023-05-02T11:37:57.866Z,95452.00
2023-05-02T11:38:57.965Z,95452.00
2023-05-02T11:39:57.989Z,95454.00
2023-05-02T11:40:58.008Z,95452.00
2023-05-02T11:41:58.047Z,95450.00
2023-05-02T11:42:58.704Z,95452.00
2023-05-02T11:43:58.216Z,95450.00
2023-05-02T11:44:58.587Z,95452.00
2023-05-02T11:45:58.368Z,95452.00
2023-05-02T11:46:58.415Z,95452.00